createdAt,value
2017-05-27T00:00:35.101Z,6.46
2017-05-27T00:03:03.949Z,6.34
2017-05-27T00:05:32.865Z,5.72
2017-05-27T00:08:01.718Z,7.30
2017-05-27T00:10:39.073Z,5.92
2017-05-27T00:13:07.925Z,6.95
2017-05-27T00:15:36.773Z,6.66
2017-05-27T00:18:12.854Z,6.17
2017-05-27T00:20:41.714Z,6.35
2017-05-27T00:23:10.558Z,6.98
2017-05-27T00:25:40.693Z,6.62
2017-05-27T00:28:09.541Z,6.46
2017-05-27T00:30:37.626Z,6.08
2017-05-27T00:33:07.814Z,6.50
2017-05-27T00:35:36.674Z,6.68
2017-05-27T00:38:05.525Z,6.84
2017-05-27T00:40:34.517Z,6.72
2017-05-27T00:43:03.371Z,6.94
2017-05-27T00:45:32.221Z,6.72
2017-05-27T00:48:01.101Z,6.60
2017-05-27T00:50:29.952Z,7.12
2017-05-27T00:52:58.813Z,7.08
2017-05-27T00:55:27.705Z,6.60
2017-05-27T00:57:56.565Z,7.50
2017-05-27T01:00:25.428Z,6.60
2017-05-27T01:02:55.164Z,7.07
2017-05-27T01:05:24.019Z,6.53
2017-05-27T01:07:52.878Z,7.33
2017-05-27T01:10:21.788Z,6.83
2017-05-27T01:12:50.647Z,7.00
2017-05-27T01:15:18.737Z,7.30
2017-05-27T01:17:47.629Z,7.32
2017-05-27T01:20:16.486Z,7.18
2017-05-27T01:22:45.354Z,6.93
2017-05-27T01:25:14.365Z,7.72
2017-05-27T01:27:43.212Z,7.77
2017-05-27T01:30:12.086Z,6.92
2017-05-27T01:32:40.981Z,7.37
2017-05-27T01:35:09.825Z,7.38
2017-05-27T01:37:38.686Z,7.20
2017-05-27T01:40:07.593Z,7.03
2017-05-27T01:42:36.457Z,8.28
2017-05-27T01:45:05.317Z,6.77
2017-05-27T01:47:41.258Z,6.80
2017-05-27T01:50:10.904Z,7.28
2017-05-27T01:52:39.810Z,8.02
2017-05-27T01:55:08.669Z,6.78
2017-05-27T01:57:37.521Z,7.28
2017-05-27T02:00:06.413Z,7.48
2017-05-27T02:02:35.269Z,7.53
2017-05-27T02:05:04.118Z,7.83
2017-05-27T02:07:32.357Z,8.47
2017-05-27T02:10:01.237Z,7.47
2017-05-27T02:12:30.086Z,8.18
2017-05-27T02:14:58.206Z,7.87
2017-05-27T02:17:27.057Z,8.00
2017-05-27T02:19:55.916Z,7.60
2017-05-27T02:22:24.801Z,8.28
2017-05-27T02:24:53.650Z,8.57
2017-05-27T02:27:22.498Z,7.93
2017-05-27T02:29:51.506Z,8.38
2017-05-27T02:32:20.357Z,8.23
2017-05-27T02:34:49.221Z,7.88
2017-05-27T02:37:17.349Z,8.35
2017-05-27T02:39:46.188Z,7.02
2017-05-27T02:42:15.040Z,8.13
2017-05-27T02:44:43.934Z,8.08
2017-05-27T02:47:12.782Z,7.50
2017-05-27T02:49:41.637Z,7.45
2017-05-27T02:52:09.893Z,7.30
2017-05-27T02:54:38.765Z,7.45
2017-05-27T02:57:07.589Z,7.40
2017-05-27T02:59:36.481Z,6.57
2017-05-27T03:02:05.328Z,7.20
2017-05-27T03:04:34.186Z,6.92
2017-05-27T03:07:03.061Z,7.92
2017-05-27T03:09:31.926Z,7.42
2017-05-27T03:12:00.777Z,8.00
2017-05-27T03:14:29.749Z,7.53
2017-05-27T03:16:58.590Z,7.57
2017-05-27T03:19:27.439Z,7.50
2017-05-27T03:21:56.366Z,7.70
2017-05-27T03:24:25.213Z,6.97
2017-05-27T03:26:54.069Z,7.35
2017-05-27T03:29:22.944Z,6.65
2017-05-27T03:31:51.792Z,7.90
2017-05-27T03:34:20.646Z,7.88
2017-05-27T03:36:48.770Z,7.73
2017-05-27T03:39:17.608Z,7.82
2017-05-27T03:41:46.458Z,7.75
2017-05-27T03:44:15.464Z,7.28
2017-05-27T03:46:44.317Z,7.60
2017-05-27T03:49:13.167Z,7.02
2017-05-27T03:51:42.053Z,7.07
2017-05-27T03:54:10.913Z,7.25
2017-05-27T03:56:39.775Z,7.45
2017-05-27T03:59:08.653Z,6.70
2017-05-27T04:01:37.505Z,7.48
2017-05-27T04:04:06.354Z,7.42
2017-05-27T04:06:35.357Z,7.33
2017-05-27T04:09:03.438Z,7.45
2017-05-27T04:11:31.518Z,7.10
2017-05-27T04:14:00.407Z,7.57
2017-05-27T04:16:29.273Z,7.35
2017-05-27T04:18:57.366Z,7.78
2017-05-27T04:21:26.242Z,7.87
2017-05-27T04:23:55.089Z,7.85
2017-05-27T04:26:23.946Z,7.78
2017-05-27T04:28:52.952Z,7.70
2017-05-27T04:31:21.805Z,8.68
2017-05-27T04:33:50.652Z,7.58
2017-05-27T04:36:19.541Z,8.03
2017-05-27T04:38:48.397Z,7.38
2017-05-27T04:41:17.241Z,7.97
2017-05-27T04:43:46.141Z,8.22
2017-05-27T04:46:14.994Z,7.43
2017-05-27T04:48:43.845Z,7.30
2017-05-27T04:51:12.839Z,7.13
2017-05-27T04:53:41.682Z,7.48
2017-05-27T04:56:10.530Z,6.90
2017-05-27T04:58:39.426Z,7.30
2017-05-27T05:01:08.273Z,7.30
2017-05-27T05:03:36.361Z,7.85
2017-05-27T05:06:05.254Z,6.57
2017-05-27T05:08:34.101Z,7.22
2017-05-27T05:11:03.689Z,7.72
2017-05-27T05:13:33.949Z,6.80
2017-05-27T05:16:02.034Z,8.33
2017-05-27T05:18:30.893Z,8.77
2017-05-27T05:20:59.805Z,7.45
2017-05-27T05:23:28.658Z,7.58
2017-05-27T05:25:57.513Z,8.40
2017-05-27T05:28:26.409Z,7.78
2017-05-27T05:30:55.257Z,6.95
2017-05-27T05:33:23.358Z,8.45
2017-05-27T05:35:53.183Z,7.55
2017-05-27T05:38:22.041Z,6.93
2017-05-27T05:40:50.904Z,7.68
2017-05-27T05:43:21.099Z,6.97
2017-05-27T05:45:49.197Z,8.50
2017-05-27T05:48:18.053Z,8.50
2017-05-27T05:50:46.951Z,8.00
2017-05-27T05:53:15.816Z,8.10
2017-05-27T05:55:44.673Z,7.15
2017-05-27T05:58:14.537Z,7.72
2017-05-27T06:00:43.401Z,7.93
2017-05-27T06:03:12.262Z,7.63
2017-05-27T06:05:41.170Z,7.35
2017-05-27T06:08:09.266Z,8.22
2017-05-27T06:10:38.900Z,6.96
2017-05-27T06:13:07.806Z,7.64
2017-05-27T06:15:36.675Z,6.62
2017-05-27T06:18:05.518Z,6.68
2017-05-27T06:20:34.517Z,7.27
2017-05-27T06:23:03.373Z,7.32
2017-05-27T06:25:32.236Z,6.12
2017-05-27T06:28:01.109Z,7.44
2017-05-27T06:30:29.965Z,5.44
2017-05-27T06:32:58.045Z,5.76
2017-05-27T06:35:26.970Z,6.48
2017-05-27T06:37:55.836Z,4.76
2017-05-27T06:40:24.691Z,5.22
2017-05-27T06:42:53.569Z,5.10
2017-05-27T06:45:22.433Z,5.10
2017-05-27T06:47:51.298Z,5.72
2017-05-27T06:50:20.189Z,5.26
2017-05-27T06:52:49.028Z,4.52
2017-05-27T06:55:17.110Z,5.12
2017-05-27T06:57:45.258Z,4.36
2017-05-27T07:00:14.110Z,5.14
2017-05-27T07:02:42.959Z,4.70
2017-05-27T07:05:11.854Z,5.20
2017-05-27T07:07:40.723Z,4.08
2017-05-27T07:10:25.103Z,4.66
2017-05-27T07:12:53.197Z,4.38
2017-05-27T07:15:22.048Z,4.68
2017-05-27T07:17:51.028Z,4.60
2017-05-27T07:20:19.856Z,4.42
2017-05-27T07:22:48.695Z,3.62
2017-05-27T07:25:17.572Z,4.04
2017-05-27T07:27:46.430Z,4.00
2017-05-27T07:30:15.303Z,4.02
2017-05-27T07:32:44.192Z,4.12
2017-05-27T07:35:13.053Z,3.50
2017-05-27T07:37:41.908Z,4.32
2017-05-27T07:40:10.918Z,4.46
2017-05-27T07:42:39.772Z,4.46
2017-05-27T07:45:08.621Z,3.56
2017-05-27T07:47:37.540Z,3.90
2017-05-27T07:50:06.404Z,3.60
2017-05-27T07:52:35.255Z,3.68
2017-05-27T07:55:04.147Z,3.54
2017-05-27T07:57:33.016Z,3.58
2017-05-27T08:00:01.867Z,3.18
2017-05-27T08:02:30.790Z,3.46
2017-05-27T08:04:59.670Z,3.80
2017-05-27T08:07:28.522Z,4.56
2017-05-27T08:09:57.423Z,3.22
2017-05-27T08:12:26.309Z,3.26
2017-05-27T08:14:55.156Z,2.98
2017-05-27T08:17:24.049Z,3.32
2017-05-27T08:19:52.133Z,3.12
2017-05-27T08:22:20.998Z,3.60
2017-05-27T08:24:50.732Z,3.34
2017-05-27T08:27:18.821Z,3.26
2017-05-27T08:29:47.675Z,3.06
2017-05-27T08:32:16.829Z,3.36
2017-05-27T08:34:45.718Z,3.16
2017-05-27T08:37:14.574Z,3.60
2017-05-27T08:39:43.461Z,3.34
2017-05-27T08:42:12.319Z,3.10
2017-05-27T08:44:41.178Z,7.40
2017-05-27T08:47:11.396Z,3.10
2017-05-27T08:49:40.241Z,3.14
2017-05-27T08:52:09.096Z,3.18
2017-05-27T08:54:37.984Z,4.08
2017-05-27T08:57:06.072Z,3.24
2017-05-27T08:59:34.906Z,7.12
2017-05-27T09:02:03.825Z,5.32
2017-05-27T09:04:32.673Z,4.04
2017-05-27T09:07:01.533Z,3.48
2017-05-27T09:09:37.489Z,3.06
2017-05-27T09:12:06.342Z,3.18
2017-05-27T09:14:35.199Z,3.04
2017-05-27T09:17:04.078Z,2.88
2017-05-27T09:19:32.946Z,2.78
2017-05-27T09:22:01.785Z,2.90
2017-05-27T09:24:30.815Z,3.16
2017-05-27T09:26:59.648Z,3.72
2017-05-27T09:29:28.497Z,2.16
2017-05-27T09:31:57.377Z,2.34
2017-05-27T09:34:26.228Z,3.20
2017-05-27T09:36:55.070Z,2.66
2017-05-27T09:39:23.947Z,2.60
2017-05-27T09:41:52.797Z,2.38
2017-05-27T09:44:21.660Z,2.38
2017-05-27T09:46:50.680Z,2.10
2017-05-27T09:49:19.519Z,2.22
2017-05-27T09:51:48.782Z,2.56
2017-05-27T09:54:17.653Z,2.50
2017-05-27T09:56:46.508Z,2.18
2017-05-27T09:59:15.357Z,2.58
2017-05-27T10:01:44.233Z,1.92
2017-05-27T10:04:13.089Z,2.46
2017-05-27T10:06:41.944Z,2.40
2017-05-27T10:09:15.050Z,2.24
2017-05-27T10:11:43.890Z,2.10
2017-05-27T10:14:12.742Z,2.56
2017-05-27T10:16:41.639Z,2.76
2017-05-27T10:19:10.474Z,2.74
2017-05-27T10:21:39.319Z,2.28
2017-05-27T10:24:08.218Z,2.80
2017-05-27T10:26:37.069Z,2.68
2017-05-27T10:29:05.921Z,2.50
2017-05-27T10:31:34.938Z,2.22
2017-05-27T10:34:03.773Z,2.20
2017-05-27T10:36:32.634Z,2.42
2017-05-27T10:39:08.751Z,2.22
2017-05-27T10:41:40.479Z,2.40
2017-05-27T10:44:09.362Z,2.88
2017-05-27T10:46:38.215Z,2.30
2017-05-27T10:49:07.068Z,2.26
2017-05-27T10:51:35.946Z,2.34
2017-05-27T10:54:04.801Z,2.50
2017-05-27T10:56:32.889Z,2.48
2017-05-27T10:59:01.806Z,2.10
2017-05-27T11:01:30.662Z,2.28
2017-05-27T11:03:59.531Z,2.86
2017-05-27T11:06:28.406Z,2.38
2017-05-27T11:08:57.278Z,2.22
2017-05-27T11:11:26.136Z,2.30
2017-05-27T11:13:55.026Z,2.40
2017-05-27T11:16:23.874Z,1.94
2017-05-27T11:18:52.732Z,2.08
2017-05-27T11:21:29.639Z,2.34
2017-05-27T11:23:59.294Z,3.04
2017-05-27T11:26:28.176Z,2.76
2017-05-27T11:28:57.053Z,3.78
2017-05-27T11:31:25.899Z,2.76
2017-05-27T11:33:54.790Z,2.40
2017-05-27T11:36:23.639Z,2.34
2017-05-27T11:38:52.498Z,2.30
2017-05-27T11:41:23.123Z,2.16
2017-05-27T11:43:51.981Z,2.16
2017-05-27T11:46:20.835Z,1.98
2017-05-27T11:48:49.733Z,1.74
2017-05-27T11:51:18.596Z,2.16
2017-05-27T11:53:47.495Z,2.40
2017-05-27T11:56:23.966Z,2.34
2017-05-27T11:58:54.597Z,2.08
2017-05-27T12:01:23.488Z,2.46
2017-05-27T12:03:52.329Z,2.34
2017-05-27T12:06:21.674Z,2.30
2017-05-27T12:08:50.690Z,2.88
2017-05-27T12:11:19.578Z,2.10
2017-05-27T12:13:48.425Z,1.80
2017-05-27T12:16:17.310Z,1.74
2017-05-27T12:18:46.161Z,2.24
2017-05-27T12:21:15.009Z,2.56
2017-05-27T12:23:45.162Z,2.12
2017-05-27T12:26:14.015Z,2.28
2017-05-27T12:28:42.875Z,2.50
2017-05-27T12:31:11.811Z,2.22
2017-05-27T12:33:40.665Z,2.28
2017-05-27T12:36:09.517Z,2.40
2017-05-27T12:38:37.633Z,2.20
2017-05-27T12:41:06.483Z,1.78
2017-05-27T12:43:35.341Z,1.74
2017-05-27T12:46:04.226Z,2.18
2017-05-27T12:48:33.070Z,1.80
2017-05-27T12:51:01.166Z,2.42
2017-05-27T12:53:30.077Z,2.10
2017-05-27T12:55:58.931Z,3.12
2017-05-27T12:58:27.790Z,2.06
2017-05-27T13:00:56.675Z,2.62
2017-05-27T13:03:25.534Z,2.28
2017-05-27T13:05:54.405Z,2.28
2017-05-27T13:08:23.402Z,2.38
2017-05-27T13:10:52.270Z,2.50
2017-05-27T13:13:21.109Z,2.10
2017-05-27T13:15:50.011Z,2.06
2017-05-27T13:18:18.857Z,2.44
2017-05-27T13:20:47.728Z,2.32
2017-05-27T13:23:24.200Z,1.94
2017-05-27T13:25:56.633Z,3.16
2017-05-27T13:28:25.547Z,2.44
2017-05-27T13:30:54.407Z,2.22
2017-05-27T13:33:23.285Z,2.62
2017-05-27T13:35:52.184Z,2.14
2017-05-27T13:38:21.029Z,2.44
2017-05-27T13:40:49.902Z,2.00
2017-05-27T13:43:20.495Z,1.98
2017-05-27T13:45:49.357Z,2.10
2017-05-27T13:48:18.208Z,2.24
2017-05-27T13:50:47.111Z,2.48
2017-05-27T13:53:15.965Z,1.92
2017-05-27T13:55:44.811Z,2.66
2017-05-27T13:58:13.698Z,2.00
2017-05-27T14:00:41.785Z,2.38
2017-05-27T14:03:10.634Z,1.80
2017-05-27T14:05:39.550Z,2.64
2017-05-27T14:08:08.413Z,1.94
2017-05-27T14:10:37.291Z,1.98
2017-05-27T14:13:06.174Z,2.16
2017-05-27T14:15:35.026Z,2.28
2017-05-27T14:18:03.894Z,2.40
2017-05-27T14:20:40.358Z,2.48
2017-05-27T14:23:12.745Z,2.50
2017-05-27T14:25:41.659Z,2.16
2017-05-27T14:28:10.487Z,2.22
2017-05-27T14:30:38.565Z,2.14
2017-05-27T14:33:07.447Z,2.06
2017-05-27T14:35:36.329Z,1.90
2017-05-27T14:38:05.183Z,2.88
2017-05-27T14:40:40.805Z,1.76
2017-05-27T14:43:09.765Z,2.10
2017-05-27T14:45:38.666Z,2.24
2017-05-27T14:48:07.527Z,2.10
2017-05-27T14:50:36.388Z,2.02
2017-05-27T14:53:05.366Z,2.28
2017-05-27T14:55:34.217Z,2.02
2017-05-27T14:58:03.062Z,2.20
2017-05-27T15:00:31.950Z,2.52
2017-05-27T15:03:00.799Z,2.20
2017-05-27T15:05:29.656Z,2.08
2017-05-27T15:07:58.554Z,2.00
2017-05-27T15:10:27.420Z,2.10
2017-05-27T15:12:56.271Z,2.10
2017-05-27T15:15:25.281Z,2.14
2017-05-27T15:17:54.139Z,2.14
2017-05-27T15:20:23.251Z,2.26
2017-05-27T15:22:52.149Z,2.54
2017-05-27T15:25:20.993Z,2.28
2017-05-27T15:27:49.850Z,2.20
2017-05-27T15:30:25.884Z,2.20
2017-05-27T15:32:54.827Z,2.40
2017-05-27T15:35:23.707Z,2.10
2017-05-27T15:37:52.551Z,2.34
2017-05-27T15:40:21.390Z,2.74
2017-05-27T15:42:50.278Z,2.16
2017-05-27T15:45:19.134Z,2.28
2017-05-27T15:47:47.979Z,2.66
2017-05-27T15:50:17.008Z,2.18
2017-05-27T15:52:45.841Z,2.08
2017-05-27T15:55:14.798Z,2.16
2017-05-27T15:57:43.662Z,2.10
2017-05-27T16:00:12.529Z,2.60
2017-05-27T16:02:41.373Z,2.00
2017-05-27T16:05:10.262Z,2.20
2017-05-27T16:07:39.118Z,2.68
2017-05-27T16:10:07.992Z,2.48
2017-05-27T16:12:36.993Z,1.98
2017-05-27T16:15:05.835Z,2.40
2017-05-27T16:17:34.691Z,2.62
2017-05-27T16:20:03.581Z,2.78
2017-05-27T16:22:32.451Z,2.60
2017-05-27T16:25:01.315Z,4.10
2017-05-27T16:27:30.287Z,2.22
2017-05-27T16:29:59.124Z,2.44
2017-05-27T16:32:27.990Z,2.48
2017-05-27T16:34:56.981Z,2.60
2017-05-27T16:37:25.810Z,2.74
2017-05-27T16:39:54.778Z,2.14
2017-05-27T16:42:23.717Z,2.20
2017-05-27T16:44:52.551Z,2.28
2017-05-27T16:47:21.413Z,2.42
2017-05-27T16:49:50.321Z,1.94
2017-05-27T16:52:19.203Z,3.18
2017-05-27T16:54:48.081Z,2.50
2017-05-27T16:57:16.938Z,2.78
2017-05-27T16:59:45.798Z,2.38
2017-05-27T17:02:14.644Z,2.38
2017-05-27T17:04:43.533Z,2.26
2017-05-27T17:07:12.380Z,2.48
2017-05-27T17:09:56.538Z,2.30
2017-05-27T17:12:25.392Z,3.36
2017-05-27T17:14:54.247Z,3.42
2017-05-27T17:17:23.151Z,4.00
2017-05-27T17:19:52.015Z,3.54
2017-05-27T17:22:20.861Z,5.06
2017-05-27T17:24:49.774Z,2.68
2017-05-27T17:27:18.621Z,5.06
2017-05-27T17:29:47.492Z,2.62
2017-05-27T17:32:16.500Z,2.88
2017-05-27T17:34:45.371Z,3.06
2017-05-27T17:37:14.240Z,2.88
2017-05-27T17:39:50.931Z,2.90
2017-05-27T17:42:19.932Z,2.96
2017-05-27T17:44:48.786Z,2.94
2017-05-27T17:47:17.702Z,2.48
2017-05-27T17:49:46.545Z,2.90
2017-05-27T17:52:15.400Z,2.88
2017-05-27T17:54:44.301Z,3.02
2017-05-27T17:57:13.154Z,2.90
2017-05-27T17:59:42.011Z,3.10
2017-05-27T18:02:12.135Z,3.78
2017-05-27T18:04:41.002Z,3.62
2017-05-27T18:07:09.858Z,3.12
2017-05-27T18:09:38.776Z,3.24
2017-05-27T18:12:09.346Z,3.40
2017-05-27T18:14:38.207Z,3.42
2017-05-27T18:17:07.702Z,3.04
2017-05-27T18:19:36.555Z,2.70
2017-05-27T18:22:05.440Z,3.22
2017-05-27T18:24:41.613Z,3.02
2017-05-27T18:27:10.478Z,3.38
2017-05-27T18:29:39.369Z,4.12
2017-05-27T18:32:08.259Z,5.08
2017-05-27T18:34:37.152Z,3.98
2017-05-27T18:37:06.008Z,3.48
2017-05-27T18:39:39.626Z,2.76
2017-05-27T18:42:08.492Z,3.54
2017-05-27T18:44:37.338Z,3.58
2017-05-27T18:47:06.234Z,3.62
2017-05-27T18:49:35.112Z,4.00
2017-05-27T18:52:03.999Z,3.98
2017-05-27T18:54:32.934Z,3.80
2017-05-27T18:57:01.797Z,3.68
2017-05-27T18:59:30.669Z,3.68
2017-05-27T19:01:58.851Z,4.06
2017-05-27T19:04:26.954Z,19.30
2017-05-27T19:06:55.819Z,26.88
2017-05-27T19:09:23.991Z,10.66
2017-05-27T19:11:56.339Z,4.40
2017-05-27T19:14:26.503Z,3.52
2017-05-27T19:16:55.363Z,3.68
2017-05-27T19:19:24.243Z,3.90
2017-05-27T19:22:00.905Z,4.30
2017-05-27T19:24:33.347Z,3.98
2017-05-27T19:27:02.299Z,3.40
2017-05-27T19:29:31.159Z,3.20
2017-05-27T19:32:00.027Z,4.76
2017-05-27T19:34:28.942Z,4.32
2017-05-27T19:36:57.821Z,3.90
2017-05-27T19:39:26.674Z,3.72
2017-05-27T19:41:55.577Z,4.24
2017-05-27T19:44:24.433Z,4.04
2017-05-27T19:46:53.291Z,3.80
2017-05-27T19:49:21.397Z,4.50
2017-05-27T19:51:50.238Z,4.22
2017-05-27T19:54:19.097Z,4.28
2017-05-27T19:56:49.698Z,4.18
2017-05-27T19:59:18.553Z,4.42
2017-05-27T20:01:47.399Z,4.76
2017-05-27T20:04:16.268Z,5.06
2017-05-27T20:06:45.113Z,5.30
2017-05-27T20:09:13.976Z,6.00
2017-05-27T20:11:43.764Z,5.50
2017-05-27T20:14:11.622Z,5.58
2017-05-27T20:16:40.003Z,5.78
2017-05-27T20:19:08.884Z,5.64
2017-05-27T20:21:37.741Z,6.28
2017-05-27T20:24:06.589Z,6.12
2017-05-27T20:26:42.619Z,5.12
2017-05-27T20:29:18.657Z,5.00
2017-05-27T20:31:48.752Z,5.50
2017-05-27T20:34:17.616Z,6.68
2017-05-27T20:36:46.480Z,6.02
2017-05-27T20:39:15.374Z,5.40
2017-05-27T20:41:44.217Z,6.88
2017-05-27T20:44:13.062Z,6.44
2017-05-27T20:46:49.966Z,6.90
2017-05-27T20:49:26.697Z,8.00
2017-05-27T20:52:03.593Z,8.56
2017-05-27T20:54:32.545Z,7.16
2017-05-27T20:57:01.445Z,6.00
2017-05-27T20:59:30.310Z,5.14
2017-05-27T21:01:59.159Z,5.10
2017-05-27T21:04:28.100Z,5.78
2017-05-27T21:06:56.936Z,4.94
2017-05-27T21:09:25.801Z,5.94
2017-05-27T21:11:59.408Z,4.92
2017-05-27T21:14:28.266Z,5.16
2017-05-27T21:16:57.130Z,4.90
2017-05-27T21:19:26.016Z,5.50
2017-05-27T21:21:54.856Z,4.62
2017-05-27T21:24:23.702Z,5.34
2017-05-27T21:26:59.728Z,5.40
2017-05-27T21:29:28.596Z,4.90
2017-05-27T21:31:57.459Z,4.80
2017-05-27T21:34:26.353Z,5.78
2017-05-27T21:36:55.208Z,4.98
2017-05-27T21:39:24.064Z,4.76
2017-05-27T21:41:52.949Z,4.60
2017-05-27T21:44:21.797Z,5.32
2017-05-27T21:46:50.652Z,5.18
2017-05-27T21:49:19.674Z,5.28
2017-05-27T21:51:48.541Z,5.20
2017-05-27T21:54:17.398Z,5.52
2017-05-27T21:56:46.298Z,4.38
2017-05-27T21:59:15.141Z,4.48
2017-05-27T22:01:44.014Z,4.30
2017-05-27T22:04:12.918Z,5.04
2017-05-27T22:06:41.779Z,4.68
2017-05-27T22:09:10.621Z,4.70
2017-05-27T22:11:53.364Z,5.50
2017-05-27T22:14:22.214Z,4.82
2017-05-27T22:16:51.050Z,5.40
2017-05-27T22:19:19.956Z,4.94
2017-05-27T22:21:48.786Z,4.72
2017-05-27T22:24:17.642Z,4.78
2017-05-27T22:26:46.541Z,5.36
2017-05-27T22:29:15.398Z,4.54
2017-05-27T22:31:44.255Z,4.64
2017-05-27T22:34:13.290Z,4.74
2017-05-27T22:36:42.138Z,4.92
2017-05-27T22:39:10.973Z,4.42
2017-05-27T22:41:39.865Z,4.84
2017-05-27T22:44:08.726Z,4.82
2017-05-27T22:46:37.580Z,4.30
2017-05-27T22:49:06.472Z,4.78
2017-05-27T22:51:35.325Z,4.64
2017-05-27T22:54:04.177Z,5.04
2017-05-27T22:56:40.786Z,4.54
2017-05-27T22:59:09.730Z,4.72
2017-05-27T23:01:38.626Z,4.84
2017-05-27T23:04:07.476Z,4.80
2017-05-27T23:06:36.330Z,5.52
2017-05-27T23:09:05.222Z,4.96
2017-05-27T23:11:34.079Z,5.30
2017-05-27T23:14:02.971Z,4.64
2017-05-27T23:16:33.613Z,5.72
2017-05-27T23:19:02.469Z,5.12
2017-05-27T23:21:31.324Z,4.92
2017-05-27T23:24:01.433Z,5.22
2017-05-27T23:26:30.301Z,5.76
2017-05-27T23:28:59.163Z,5.10
2017-05-27T23:31:28.050Z,5.60
2017-05-27T23:33:56.130Z,5.20
2017-05-27T23:36:24.989Z,6.24
2017-05-27T23:38:53.980Z,5.56
2017-05-27T23:41:22.057Z,5.62
2017-05-27T23:43:50.142Z,5.50
2017-05-27T23:46:19.021Z,6.14
2017-05-27T23:48:47.118Z,4.96
2017-05-27T23:51:15.966Z,5.50
2017-05-27T23:53:46.726Z,4.58
2017-05-27T23:56:15.570Z,5.38
2017-05-27T23:58:44.421Z,5.30
